Time;durP1;ratioP1;P1;durP2;ratioP2;P2;SDS_P1;SDS_P2;PMS_P1;PMS_P2;Temp;Humidity;BMP_temperature;BMP_pressure;BME280_temperature;BME280_humidity;BME280_pressure;Samples;Min_cycle;Max_cycle;Signal;HPM_P1;HPM_P2
2024/04/27 00:01:14;;;;;;;10.90;9.03;;;22.80;74.60;;;;;;5431557;26;22293;-34
2024/04/27 00:03:45;;;;;;;11.63;9.57;;;22.30;74.30;;;;;;5415759;26;20605;-38
2024/04/27 00:06:16;;;;;;;12.77;9.53;;;22.50;75.20;;;;;;5429043;26;20585;-35
2024/04/27 00:08:44;;;;;;;14.97;9.47;;;21.80;75.10;;;;;;5423428;26;20565;-34
2024/04/27 00:11:13;;;;;;;12.93;11.00;;;22.80;75.30;;;;;;5443795;26;20459;-35
2024/04/27 00:13:41;;;;;;;10.80;8.53;;;22.50;75.10;;;;;;5421457;26;20527;-34
2024/04/27 00:16:17;;;;;;;11.93;8.47;;;22.60;75.10;;;;;;5423806;26;20464;-35
2024/04/27 00:18:50;;;;;;;11.95;8.90;;;22.40;74.90;;;;;;5432307;26;20455;-35
2024/04/27 00:21:21;;;;;;;12.33;9.57;;;22.60;75.70;;;;;;5433838;26;21817;-35
2024/04/27 00:23:51;;;;;;;15.65;10.00;;;22.50;75.20;;;;;;5430161;26;20463;-33
2024/04/27 00:26:21;;;;;;;11.80;10.20;;;22.60;75.30;;;;;;5427322;26;20242;-35
2024/04/27 00:28:50;;;;;;;10.30;8.70;;;22.80;75.40;;;;;;5428229;26;20589;-35
2024/04/27 00:31:25;;;;;;;11.10;8.77;;;22.40;75.60;;;;;;5439703;26;20238;-35
2024/04/27 00:33:54;;;;;;;12.52;9.85;;;22.30;75.90;;;;;;5437117;26;20288;-37
2024/04/27 00:36:25;;;;;;;11.80;9.82;;;22.90;76.90;;;;;;5425579;26;20234;-35
2024/04/27 00:38:53;;;;;;;11.18;8.65;;;22.30;76.00;;;;;;5415786;26;20864;-34
2024/04/27 00:41:23;;;;;;;13.13;8.63;;;23.10;78.00;;;;;;5424016;26;20239;-34
2024/04/27 00:43:51;;;;;;;10.95;8.05;;;22.40;76.60;;;;;;5441251;26;20236;-36
2024/04/27 00:46:20;;;;;;;12.13;8.27;;;22.20;76.40;;;;;;5409346;26;20238;-35
2024/04/27 00:48:51;;;;;;;8.80;7.32;;;22.20;76.60;;;;;;5433509;26;20897;-34
2024/04/27 00:51:22;;;;;;;11.93;8.35;;;21.80;76.60;;;;;;5411316;26;20363;-34
2024/04/27 00:53:54;;;;;;;9.98;8.18;;;22.50;77.10;;;;;;5444679;26;20243;-36
2024/04/27 00:56:27;;;;;;;13.85;9.77;;;21.90;75.50;;;;;;5434326;26;20375;-34
2024/04/27 00:58:56;;;;;;;8.20;7.23;;;23.20;78.20;;;;;;5421457;26;20322;-37
2024/04/27 01:01:25;;;;;;;10.30;7.75;;;22.20;77.40;;;;;;5420333;26;20917;-33
2024/04/27 01:03:55;;;;;;;11.00;7.67;;;22.10;76.90;;;;;;5425479;26;20244;-34
2024/04/27 01:06:25;;;;;;;10.85;8.65;;;21.90;76.60;;;;;;5427161;26;20589;-35
2024/04/27 01:08:59;;;;;;;12.07;7.95;;;21.70;76.70;;;;;;5402904;26;20332;-34
2024/04/27 01:11:28;;;;;;;9.23;7.75;;;21.90;77.20;;;;;;5420750;26;20243;-37
2024/04/27 01:13:58;;;;;;;10.38;8.10;;;22.10;77.50;;;;;;5432665;26;20355;-34
2024/04/27 01:16:27;;;;;;;11.60;8.15;;;21.90;77.30;;;;;;5436214;26;20697;-36
2024/04/27 01:19:02;;;;;;;12.55;7.90;;;22.10;77.50;;;;;;5422084;26;20231;-33
2024/04/27 01:21:31;;;;;;;10.10;7.60;;;21.90;76.70;;;;;;5437598;26;20320;-36
2024/04/27 01:24:02;;;;;;;8.80;7.55;;;22.00;78.90;;;;;;5425457;26;20312;-35
2024/04/27 01:26:32;;;;;;;8.35;7.47;;;21.60;77.70;;;;;;5415515;26;20334;-34
2024/04/27 01:29:01;;;;;;;10.68;8.35;;;21.50;76.80;;;;;;5441746;26;20262;-33
2024/04/27 01:31:30;;;;;;;10.23;7.75;;;21.80;77.40;;;;;;5420825;26;21270;-33
2024/04/27 01:34:00;;;;;;;10.23;7.65;;;22.50;78.90;;;;;;5419347;26;20357;-36
2024/04/27 01:36:28;;;;;;;9.95;8.70;;;20.90;77.10;;;;;;5425508;26;20235;-35
2024/04/27 01:39:00;;;;;;;10.82;7.72;;;22.90;78.80;;;;;;5428875;26;20334;-34
2024/04/27 01:41:35;;;;;;;8.95;7.30;;;21.90;78.00;;;;;;5422604;26;20273;-32
2024/04/27 01:44:05;;;;;;;10.50;7.40;;;22.10;79.40;;;;;;5418525;26;20234;-34
2024/04/27 01:46:31;;;;;;;8.50;7.43;;;22.10;78.90;;;;;;5426323;26;20374;-33
2024/04/27 01:48:59;;;;;;;8.50;7.17;;;21.60;78.80;;;;;;5415638;26;20250;-34
2024/04/27 01:51:37;;;;;;;10.70;7.97;;;21.60;78.70;;;;;;5423046;26;20602;-34
2024/04/27 01:54:07;;;;;;;7.90;6.57;;;21.60;78.40;;;;;;5421292;26;21249;-36
2024/04/27 01:56:38;;;;;;;8.27;7.35;;;21.80;79.20;;;;;;5433575;26;20281;-32
2024/04/27 01:59:10;;;;;;;8.45;6.93;;;21.60;78.80;;;;;;5433693;26;20347;-34
2024/04/27 02:01:39;;;;;;;8.65;7.63;;;21.30;79.20;;;;;;5419342;26;20257;-33
2024/04/27 02:04:07;;;;;;;7.55;6.75;;;22.20;80.30;;;;;;5438317;26;20261;-34
2024/04/27 02:06:43;;;;;;;8.85;7.15;;;21.80;79.70;;;;;;5430001;26;20231;-34
2024/04/27 02:09:14;;;;;;;7.93;6.95;;;21.50;79.80;;;;;;5421197;26;20269;-32
2024/04/27 02:11:46;;;;;;;8.27;6.22;;;21.50;79.50;;;;;;5433844;26;20239;-34
2024/04/27 02:14:15;;;;;;;7.63;6.72;;;21.30;80.10;;;;;;5438983;26;20242;-37
2024/04/27 02:19:29;;;;;;;10.27;7.30;;;21.30;75.90;;;;;;5430023;26;20356;-34
2024/04/27 02:21:58;;;;;;;10.50;7.00;;;21.40;79.30;;;;;;5431331;26;20362;-33
2024/04/27 02:24:28;;;;;;;7.60;6.80;;;22.40;81.20;;;;;;5429851;26;20359;-33
2024/04/27 02:26:59;;;;;;;8.93;6.25;;;21.30;80.30;;;;;;5437137;26;20232;-33
2024/04/27 02:29:30;;;;;;;8.80;7.55;;;21.60;80.10;;;;;;5440745;26;20242;-34
2024/04/27 02:31:58;;;;;;;6.72;5.95;;;21.50;80.50;;;;;;5431901;26;20255;-36
2024/04/27 02:34:26;;;;;;;8.82;7.28;;;22.10;81.40;;;;;;5445822;26;20326;-33
2024/04/27 02:36:58;;;;;;;9.52;7.25;;;21.40;80.40;;;;;;5424734;26;20231;-35
2024/04/27 02:39:26;;;;;;;7.43;6.68;;;21.60;81.40;;;;;;5432718;26;20288;-33
2024/04/27 02:42:00;;;;;;;8.55;7.07;;;21.60;81.00;;;;;;5443031;26;20334;-33
2024/04/27 02:44:31;;;;;;;8.20;7.10;;;21.10;75.10;;;;;;5433462;26;20727;-37
2024/04/27 02:47:00;;;;;;;8.00;5.57;;;21.10;79.70;;;;;;5430259;26;20307;-35
2024/04/27 02:49:28;;;;;;;7.05;5.68;;;21.80;81.40;;;;;;5432686;26;20922;-34
2024/04/27 02:51:57;;;;;;;9.38;7.72;;;21.00;80.40;;;;;;5435031;26;21053;-35
2024/04/27 02:54:29;;;;;;;6.22;5.63;;;20.90;80.50;;;;;;5425200;26;21736;-33
2024/04/27 02:56:57;;;;;;;7.75;6.75;;;22.00;81.30;;;;;;5428718;26;20261;-33
2024/04/27 02:59:30;;;;;;;7.30;6.60;;;21.00;80.40;;;;;;5434548;26;20247;-35
2024/04/27 03:02:00;;;;;;;9.48;6.38;;;20.70;80.40;;;;;;5439205;26;20230;-32
2024/04/27 03:04:31;;;;;;;8.75;6.70;;;21.00;81.50;;;;;;5434814;26;20930;-33
2024/04/27 03:07:05;;;;;;;8.20;6.80;;;20.90;80.10;;;;;;5436211;26;20311;-33
2024/04/27 03:09:33;;;;;;;7.25;6.55;;;21.40;81.30;;;;;;5410575;26;20331;-34
2024/04/27 03:12:04;;;;;;;7.05;6.15;;;21.70;82.00;;;;;;5420693;26;20234;-34
2024/04/27 03:14:34;;;;;;;8.60;5.88;;;21.70;82.10;;;;;;5421214;26;21034;-35
2024/04/27 03:17:06;;;;;;;8.02;7.13;;;21.00;81.60;;;;;;5439600;26;20249;-34
2024/04/27 03:19:35;;;;;;;8.63;6.53;;;21.70;82.50;;;;;;5429621;26;20364;-36
2024/04/27 03:22:05;;;;;;;9.18;5.88;;;21.00;81.20;;;;;;5421742;26;20291;-36
2024/04/27 03:24:35;;;;;;;9.45;6.70;;;20.90;81.60;;;;;;5429686;26;20243;-34
2024/04/27 03:27:03;;;;;;;5.75;5.25;;;21.20;81.40;;;;;;5418436;26;20242;-35
2024/04/27 03:29:34;;;;;;;9.70;6.78;;;21.20;82.00;;;;;;5428545;26;20913;-34
2024/04/27 03:32:03;;;;;;;7.88;5.63;;;20.70;80.90;;;;;;5429559;26;20351;-33
2024/04/27 03:34:31;;;;;;;7.28;5.88;;;21.10;82.00;;;;;;5419688;26;21015;-35
2024/04/27 03:36:59;;;;;;;6.15;5.10;;;21.80;83.20;;;;;;5436624;26;20250;-37
2024/04/27 03:39:27;;;;;;;7.35;6.40;;;21.90;83.00;;;;;;5431875;26;20245;-32
2024/04/27 03:41:56;;;;;;;8.10;5.82;;;20.90;82.20;;;;;;5433784;26;20285;-34
2024/04/27 03:44:27;;;;;;;6.47;5.65;;;21.10;82.10;;;;;;5431806;26;20242;-34
2024/04/27 03:46:58;;;;;;;7.80;6.55;;;21.20;82.30;;;;;;5437156;26;20705;-35
2024/04/27 03:49:33;;;;;;;9.00;6.78;;;21.80;83.20;;;;;;5426821;26;20230;-36
2024/04/27 03:52:01;;;;;;;7.68;6.47;;;20.80;81.30;;;;;;5439321;26;20351;-34
2024/04/27 03:54:32;;;;;;;8.35;6.40;;;21.00;82.30;;;;;;5411556;26;20331;-33
2024/04/27 03:57:01;;;;;;;7.00;5.95;;;20.80;82.20;;;;;;5426582;26;22005;-36
2024/04/27 03:59:34;;;;;;;7.15;6.45;;;20.70;82.30;;;;;;5427534;26;25287;-33
2024/04/27 04:02:12;;;;;;;6.72;5.40;;;20.60;82.20;;;;;;5437096;26;20238;-35
2024/04/27 04:04:42;;;;;;;6.25;5.28;;;20.70;82.10;;;;;;5431761;26;20916;-33
2024/04/27 04:07:11;;;;;;;7.55;6.45;;;21.10;82.40;;;;;;5417840;26;20312;-34
2024/04/27 04:09:39;;;;;;;6.90;5.65;;;21.10;82.40;;;;;;5434645;26;21622;-35
2024/04/27 04:12:13;;;;;;;8.20;6.35;;;21.60;83.10;;;;;;5430893;26;20371;-32
2024/04/27 04:14:42;;;;;;;7.28;6.13;;;20.80;82.20;;;;;;5428976;26;20269;-34
2024/04/27 04:17:15;;;;;;;6.00;5.40;;;20.90;82.60;;;;;;5418716;26;20234;-38
2024/04/27 04:19:44;;;;;;;6.22;5.63;;;20.80;83.00;;;;;;5422202;26;21802;-35
2024/04/27 04:22:14;;;;;;;6.57;5.32;;;21.50;83.80;;;;;;5422317;26;20843;-34
2024/04/27 04:24:43;;;;;;;6.80;6.00;;;20.70;82.70;;;;;;5411398;26;20335;-32
2024/04/27 04:27:11;;;;;;;7.40;5.55;;;20.80;82.70;;;;;;5438733;26;20338;-36
2024/04/27 04:29:39;;;;;;;6.10;5.45;;;21.30;83.40;;;;;;5426614;26;20266;-32
2024/04/27 04:32:08;;;;;;;6.93;4.85;;;20.80;83.20;;;;;;5405535;26;20308;-33
2024/04/27 04:34:39;;;;;;;6.30;5.70;;;21.00;83.30;;;;;;5434587;26;21080;-33
2024/04/27 04:37:08;;;;;;;6.13;5.35;;;20.70;83.50;;;;;;5426616;26;20242;-34
2024/04/27 04:39:39;;;;;;;6.18;5.32;;;20.80;82.70;;;;;;5413343;26;20243;-35
2024/04/27 04:42:08;;;;;;;6.45;5.30;;;20.50;82.50;;;;;;5426824;26;20231;-34
2024/04/27 04:44:36;;;;;;;6.78;5.43;;;20.50;82.10;;;;;;5430510;26;20270;-32
2024/04/27 04:47:04;;;;;;;6.07;5.18;;;21.10;83.40;;;;;;5426195;26;20272;-34
2024/04/27 04:49:33;;;;;;;5.07;4.57;;;21.40;84.00;;;;;;5413667;26;20288;-34
2024/04/27 04:52:03;;;;;;;7.03;5.80;;;21.10;83.90;;;;;;5423885;26;20250;-36
2024/04/27 04:54:32;;;;;;;6.40;5.30;;;21.30;84.30;;;;;;5432904;26;20359;-33
2024/04/27 04:57:00;;;;;;;6.40;5.15;;;19.90;82.30;;;;;;5417932;26;20227;-35
2024/04/27 04:59:30;;;;;;;5.50;4.90;;;20.60;83.40;;;;;;5437699;26;20238;-34
2024/04/27 05:01:58;;;;;;;5.60;5.10;;;20.70;85.30;;;;;;5436660;26;20234;-33
2024/04/27 05:04:28;;;;;;;5.97;5.30;;;20.10;83.40;;;;;;5428139;26;21247;-35
2024/04/27 05:06:57;;;;;;;5.88;5.18;;;21.70;85.60;;;;;;5432242;26;20323;-33
2024/04/27 05:09:29;;;;;;;5.40;4.38;;;20.90;84.80;;;;;;5435130;26;20242;-34
2024/04/27 05:11:58;;;;;;;4.93;4.43;;;20.80;85.30;;;;;;5445180;26;20234;-34
2024/04/27 05:14:30;;;;;;;5.43;4.93;;;20.70;84.70;;;;;;5437166;26;20273;-35
2024/04/27 05:17:01;;;;;;;5.03;4.18;;;20.70;84.50;;;;;;5420411;26;20230;-37
2024/04/27 05:19:29;;;;;;;6.07;5.28;;;20.20;79.00;;;;;;5419403;26;20238;-34
2024/04/27 05:21:58;;;;;;;6.13;4.97;;;21.20;85.40;;;;;;5420860;26;20732;-38
2024/04/27 05:24:29;;;;;;;5.78;4.75;;;20.80;85.00;;;;;;5434810;26;20239;-34
2024/04/27 05:27:01;;;;;;;4.57;4.18;;;20.50;84.60;;;;;;5417172;26;20242;-37
2024/04/27 05:29:29;;;;;;;6.18;5.57;;;20.70;84.90;;;;;;5414689;26;20239;-36
2024/04/27 05:31:57;;;;;;;5.00;4.53;;;20.20;84.30;;;;;;5428840;26;20276;-35
2024/04/27 05:34:26;;;;;;;5.22;4.40;;;20.40;84.50;;;;;;5435300;26;20230;-35
2024/04/27 05:36:54;;;;;;;5.72;5.13;;;20.80;85.10;;;;;;5415129;26;20242;-35
2024/04/27 05:39:22;;;;;;;4.57;4.05;;;20.40;84.70;;;;;;5420313;26;20231;-35
2024/04/27 05:41:54;;;;;;;4.65;4.25;;;20.70;85.40;;;;;;5417325;26;21016;-35
2024/04/27 05:44:23;;;;;;;6.18;5.18;;;20.30;84.90;;;;;;5436934;26;21063;-38
2024/04/27 05:46:51;;;;;;;5.78;4.28;;;20.80;85.60;;;;;;5415837;26;21002;-33
2024/04/27 05:49:19;;;;;;;5.03;4.47;;;20.90;86.10;;;;;;5435627;26;20238;-35
2024/04/27 05:51:48;;;;;;;5.10;4.43;;;21.80;87.00;;;;;;5431267;26;20290;-32
2024/04/27 05:54:16;;;;;;;4.60;4.20;;;20.70;85.60;;;;;;5431800;26;20384;-36
2024/04/27 05:56:48;;;;;;;5.28;4.75;;;20.70;85.10;;;;;;5425025;26;20250;-35
2024/04/27 05:59:19;;;;;;;5.30;4.38;;;21.40;84.30;;;;;;5444799;26;20273;-35
2024/04/27 06:01:48;;;;;;;6.35;4.68;;;20.80;85.80;;;;;;5434634;26;20335;-34
2024/04/27 06:04:16;;;;;;;7.85;4.65;;;20.90;85.60;;;;;;5427262;26;20243;-35
2024/04/27 06:06:44;;;;;;;3.80;3.50;;;20.70;85.10;;;;;;5427293;26;20234;-32
2024/04/27 06:09:13;;;;;;;4.72;4.20;;;21.20;85.10;;;;;;5434913;26;20273;-34
2024/04/27 06:11:41;;;;;;;4.60;4.20;;;20.70;85.30;;;;;;5430396;26;20242;-34
2024/04/27 06:14:11;;;;;;;5.25;4.47;;;20.30;84.70;;;;;;5420691;26;20227;-33
2024/04/27 06:16:41;;;;;;;4.25;3.50;;;20.60;85.20;;;;;;5440596;26;20401;-34
2024/04/27 06:19:10;;;;;;;4.35;3.80;;;20.80;85.70;;;;;;5429146;26;20243;-34
2024/04/27 06:21:38;;;;;;;7.38;4.65;;;20.50;85.30;;;;;;5430220;26;20289;-35
2024/04/27 06:24:07;;;;;;;4.57;4.03;;;21.00;85.90;;;;;;5426262;26;21281;-33
2024/04/27 06:26:38;;;;;;;4.55;4.15;;;21.50;86.10;;;;;;5418506;26;20242;-33
2024/04/27 06:29:07;;;;;;;4.97;4.32;;;20.80;84.90;;;;;;5432300;26;20230;-35
2024/04/27 06:31:35;;;;;;;5.22;4.03;;;21.20;86.40;;;;;;5427609;26;20872;-33
2024/04/27 06:34:08;;;;;;;4.05;3.75;;;21.00;86.30;;;;;;5432654;26;20334;-35
2024/04/27 06:36:40;;;;;;;3.53;3.20;;;20.70;84.90;;;;;;5428110;26;23418;-34
2024/04/27 06:39:08;;;;;;;4.53;4.00;;;20.90;85.00;;;;;;5434391;26;20315;-34
2024/04/27 06:41:40;;;;;;;4.63;4.03;;;20.80;84.80;;;;;;5417055;26;20944;-35
2024/04/27 06:44:13;;;;;;;3.60;3.30;;;21.10;84.50;;;;;;5432660;26;20253;-36
2024/04/27 06:46:50;;;;;;;4.90;3.92;;;21.10;85.20;;;;;;5428509;26;20279;-33
2024/04/27 06:49:21;;;;;;;6.03;4.13;;;21.30;84.50;;;;;;5436582;26;20233;-33
2024/04/27 06:51:50;;;;;;;3.30;3.00;;;21.20;84.80;;;;;;5438101;26;20238;-35
2024/04/27 06:54:18;;;;;;;4.20;3.80;;;21.30;85.00;;;;;;5426172;26;20246;-33
2024/04/27 06:56:46;;;;;;;3.80;3.50;;;20.90;84.70;;;;;;5417411;26;20231;-34
2024/04/27 06:59:16;;;;;;;4.43;3.80;;;20.90;84.30;;;;;;5429656;26;21194;-33
2024/04/27 07:01:44;;;;;;;4.75;4.20;;;21.00;84.50;;;;;;5434755;26;20542;-33
2024/04/27 07:04:14;;;;;;;4.32;3.92;;;21.10;84.00;;;;;;5428109;26;20243;-36
2024/04/27 07:06:45;;;;;;;4.75;4.35;;;20.10;83.20;;;;;;5441821;26;20891;-33
2024/04/27 07:09:13;;;;;;;4.43;3.50;;;21.20;84.80;;;;;;5425058;26;20331;-33
2024/04/27 07:11:42;;;;;;;5.00;4.50;;;21.50;85.10;;;;;;5419384;26;20244;-33
2024/04/27 07:14:12;;;;;;;4.43;3.70;;;21.70;85.80;;;;;;5423809;26;21405;-34
2024/04/27 07:16:43;;;;;;;4.47;4.00;;;21.70;85.90;;;;;;5426316;26;20239;-33
2024/04/27 07:19:11;;;;;;;3.85;3.17;;;21.10;85.80;;;;;;5437880;26;20246;-33
2024/04/27 07:21:40;;;;;;;6.22;4.05;;;21.30;90.50;;;;;;5420469;26;20246;-36
2024/04/27 07:24:11;;;;;;;3.85;3.53;;;21.40;91.90;;;;;;5412874;26;20904;-33
2024/04/27 07:26:42;;;;;;;4.43;4.00;;;22.40;92.70;;;;;;5422012;26;20727;-33
2024/04/27 07:29:10;;;;;;;4.07;3.42;;;21.60;90.10;;;;;;5424760;26;21786;-36
2024/04/27 07:31:39;;;;;;;7.23;4.93;;;21.70;90.40;;;;;;5422293;26;21296;-34
2024/04/27 07:34:07;;;;;;;9.80;3.90;;;21.50;90.90;;;;;;5432078;26;20467;-33
2024/04/27 07:36:35;;;;;;;4.40;3.40;;;22.00;82.10;;;;;;5436731;26;20239;-33
2024/04/27 07:39:06;;;;;;;6.53;3.60;;;21.90;82.70;;;;;;5434070;26;20600;-34
2024/04/27 07:41:42;;;;;;;7.27;4.20;;;22.10;83.00;;;;;;5419524;26;20222;-34
2024/04/27 07:44:12;;;;;;;3.73;3.33;;;22.40;83.80;;;;;;5423213;26;20479;-32
2024/04/27 07:46:40;;;;;;;3.27;2.97;;;22.00;83.30;;;;;;5413729;26;20504;-34
2024/04/27 07:49:09;;;;;;;3.60;3.10;;;22.50;84.00;;;;;;5429953;26;20840;-34
2024/04/27 07:51:39;;;;;;;3.60;3.30;;;22.50;84.80;;;;;;5428222;26;20464;-32
2024/04/27 07:54:07;;;;;;;3.87;3.00;;;22.10;84.10;;;;;;5409755;26;20480;-33
2024/04/27 07:56:38;;;;;;;3.47;3.17;;;22.60;85.40;;;;;;5410947;26;20459;-31
2024/04/27 07:59:09;;;;;;;4.10;3.70;;;22.60;86.20;;;;;;5432966;26;20479;-32
2024/04/27 08:01:38;;;;;;;5.30;3.37;;;22.40;86.00;;;;;;5432338;26;20467;-31
2024/04/27 08:04:06;;;;;;;3.30;3.00;;;22.40;87.40;;;;;;5364673;26;20456;-31
2024/04/27 08:06:35;;;;;;;4.00;3.37;;;22.90;88.20;;;;;;5381583;26;20762;-31
2024/04/27 08:09:05;;;;;;;3.33;3.03;;;23.50;87.30;;;;;;5384356;26;20469;-33
2024/04/27 08:11:34;;;;;;;3.00;2.80;;;;;;;;;;5387073;26;20496;-31
2024/04/27 08:14:10;;;;;;;4.07;3.03;;;23.50;85.30;;;;;;5390358;26;20680;-31
2024/04/27 08:16:38;;;;;;;3.97;3.60;;;23.50;84.30;;;;;;5371953;26;20463;-32
2024/04/27 08:19:07;;;;;;;3.60;3.30;;;24.20;87.00;;;;;;5389834;26;21251;-32
2024/04/27 08:21:44;;;;;;;6.73;3.50;;;23.60;87.10;;;;;;5371698;26;20597;-34
2024/04/27 08:24:12;;;;;;;3.30;3.00;;;23.30;87.90;;;;;;5377113;26;20556;-30
2024/04/27 08:26:44;;;;;;;3.53;3.23;;;24.10;90.20;;;;;;5367271;26;21561;-32
2024/04/27 08:29:15;;;;;;;4.10;3.73;;;23.50;89.00;;;;;;5382500;26;20459;-31
2024/04/27 08:31:43;;;;;;;3.90;3.50;;;23.30;82.00;;;;;;5389294;26;20554;-31
2024/04/27 08:34:11;;;;;;;3.67;3.17;;;23.70;83.10;;;;;;5380980;26;20507;-36
2024/04/27 08:36:41;;;;;;;3.17;2.87;;;24.00;83.90;;;;;;5389678;26;20485;-34
2024/04/27 08:39:09;;;;;;;3.43;3.13;;;23.90;85.40;;;;;;5392389;26;20593;-32
2024/04/27 08:41:42;;;;;;;3.97;3.53;;;25.40;84.70;;;;;;5377416;26;20471;-32
2024/04/27 08:44:15;;;;;;;3.40;2.70;;;23.80;82.60;;;;;;5384954;26;21972;-31
2024/04/27 08:46:44;;;;;;;3.47;3.17;;;24.60;84.00;;;;;;5390741;26;20567;-31
2024/04/27 08:49:13;;;;;;;3.73;2.90;;;24.60;83.60;;;;;;5385229;26;20456;-34
2024/04/27 08:51:46;;;;;;;4.73;3.50;;;24.10;83.10;;;;;;5384807;26;20459;-31
2024/04/27 08:54:15;;;;;;;5.00;2.80;;;23.90;83.40;;;;;;5368230;26;20468;-32
2024/04/27 08:56:47;;;;;;;3.10;2.80;;;23.60;81.20;;;;;;5393736;26;20463;-32
2024/04/27 08:59:18;;;;;;;3.23;2.93;;;24.00;80.90;;;;;;5396736;26;20601;-33
2024/04/27 09:01:49;;;;;;;4.00;3.40;;;23.90;81.90;;;;;;5389354;26;20745;-30
2024/04/27 09:04:17;;;;;;;3.40;3.10;;;24.20;81.60;;;;;;5393966;26;20524;-28
2024/04/27 09:06:56;;;;;;;4.47;3.37;;;23.10;80.00;;;;;;5389267;26;21131;-31
2024/04/27 09:09:27;;;;;;;3.67;3.37;;;24.60;82.90;;;;;;5370873;26;20504;-33
2024/04/27 09:11:55;;;;;;;3.63;3.23;;;24.30;82.10;;;;;;5376635;26;20703;-33
2024/04/27 09:14:26;;;;;;;3.57;3.27;;;24.50;83.00;;;;;;5382413;26;20477;-32
2024/04/27 09:16:57;;;;;;;3.20;2.80;;;25.20;85.40;;;;;;5377989;26;20614;-35
2024/04/27 09:19:32;;;;;;;3.20;2.90;;;24.20;86.70;;;;;;5390100;26;20459;-35
2024/04/27 09:22:02;;;;;;;3.30;3.00;;;24.50;86.40;;;;;;5388759;26;20472;-35
2024/04/27 09:24:31;;;;;;;3.00;2.80;;;24.30;88.20;;;;;;5373336;26;20502;-35
2024/04/27 09:26:59;;;;;;;2.73;2.50;;;25.10;89.90;;;;;;5384657;26;20469;-35
2024/04/27 09:29:32;;;;;;;3.47;3.17;;;24.00;86.60;;;;;;5382195;26;20589;-34
2024/04/27 09:32:01;;;;;;;5.40;2.93;;;24.40;87.90;;;;;;5385344;26;21062;-36
2024/04/27 09:34:32;;;;;;;3.57;2.67;;;23.90;86.50;;;;;;5393888;26;21155;-35
2024/04/27 09:37:03;;;;;;;2.67;2.47;;;25.30;88.20;;;;;;5379635;26;20456;-36
2024/04/27 09:39:40;;;;;;;4.70;3.33;;;24.60;85.80;;;;;;5328932;26;20486;-36
2024/04/27 09:42:13;;;;;;;3.87;3.53;;;24.50;86.10;;;;;;5319881;26;20538;-35
2024/04/27 09:44:53;;;;;;;8.13;2.87;;;25.40;90.50;;;;;;5323909;26;20512;-34
2024/04/27 09:47:27;;;;;;;6.60;2.97;;;25.10;87.80;;;;;;5343030;26;20474;-34
2024/04/27 09:50:01;;;;;;;2.90;2.70;;;25.00;89.30;;;;;;5137292;26;20463;-35
2024/04/27 09:52:30;;;;;;;2.40;2.20;;;;;;;;;;5131338;26;20462;-34
2024/04/27 09:55:02;;;;;;;3.27;3.00;;;24.40;91.60;;;;;;5133354;26;20466;-36
2024/04/27 09:57:36;;;;;;;2.67;2.30;;;25.00;92.60;;;;;;5117491;26;20566;-32
2024/04/27 10:00:08;;;;;;;2.60;2.40;;;25.00;93.00;;;;;;5119593;26;20468;-34
2024/04/27 10:02:39;;;;;;;3.30;2.67;;;24.80;93.10;;;;;;5126843;26;21518;-34
2024/04/27 10:05:08;;;;;;;2.53;2.30;;;24.80;93.60;;;;;;5127454;26;20981;-33
2024/04/27 10:07:38;;;;;;;3.13;2.83;;;24.90;93.90;;;;;;5132314;26;21521;-34
2024/04/27 10:10:18;;;;;;;2.90;2.70;;;24.60;94.30;;;;;;5124666;26;20476;-34
2024/04/27 10:12:47;;;;;;;3.10;2.63;;;;;;;;;;5127795;26;21067;-35
2024/04/27 10:15:23;;;;;;;6.63;3.70;;;25.00;86.60;;;;;;5133818;26;20561;-36
2024/04/27 10:17:55;;;;;;;3.07;2.77;;;24.90;88.90;;;;;;5106507;26;21365;-33
2024/04/27 10:20:30;;;;;;;3.77;3.00;;;25.60;90.30;;;;;;5131928;26;20487;-33
2024/04/27 10:22:59;;;;;;;3.17;2.60;;;24.80;90.30;;;;;;5117308;26;21914;-34
2024/04/27 10:25:44;;;;;;;4.10;2.57;;;24.90;93.50;;;;;;5141437;26;20481;-34
2024/04/27 10:28:14;;;;;;;5.97;4.37;;;24.90;94.90;;;;;;5140905;26;20535;-34
2024/04/27 10:30:52;;;;;;;3.00;2.70;;;25.10;92.10;;;;;;5123721;26;20475;-36
2024/04/27 10:33:28;;;;;;;3.80;3.27;;;25.50;93.60;;;;;;5133353;26;25894;-35
2024/04/27 10:36:04;;;;;;;4.53;3.60;;;25.70;94.90;;;;;;5153077;26;20456;-35
2024/04/27 10:38:39;;;;;;;3.93;3.00;;;25.00;93.20;;;;;;5161304;26;22093;-34
2024/04/27 10:41:13;;;;;;;3.13;2.07;;;25.40;91.10;;;;;;5153176;26;20586;-37
2024/04/27 10:43:48;;;;;;;4.30;2.03;;;25.30;92.70;;;;;;5147253;26;21681;-35
2024/04/27 10:46:28;;;;;;;2.87;2.10;;;25.00;90.60;;;;;;5146313;26;20598;-38
2024/04/27 10:48:57;;;;;;;3.97;2.20;;;25.00;91.20;;;;;;5156952;26;27668;-34
2024/04/27 10:51:30;;;;;;;4.07;2.70;;;25.10;93.00;;;;;;5159792;26;20616;-36
2024/04/27 10:54:01;;;;;;;2.90;2.23;;;26.00;90.10;;;;;;5144801;26;20483;-33
2024/04/27 10:56:32;;;;;;;2.60;2.33;;;25.10;92.10;;;;;;5141332;26;20496;-34
2024/04/27 10:59:01;;;;;;;11.37;2.70;;;25.70;85.00;;;;;;5130888;26;21420;-33
2024/04/27 11:01:36;;;;;;;15.90;2.70;;;25.80;85.10;;;;;;5147878;26;20569;-34
2024/04/27 11:04:09;;;;;;;2.57;2.37;;;25.70;84.50;;;;;;5131219;26;21876;-36
2024/04/27 11:06:41;;;;;;;2.30;2.10;;;25.40;82.40;;;;;;5144944;26;20495;-36
2024/04/27 11:09:09;;;;;;;4.10;2.43;;;25.50;85.00;;;;;;5135361;26;20477;-34
2024/04/27 11:11:38;;;;;;;4.13;2.50;;;25.60;86.60;;;;;;5145717;26;20523;-36
2024/04/27 11:14:08;;;;;;;2.30;1.87;;;25.50;89.30;;;;;;5137226;26;20480;-34
2024/04/27 11:16:40;;;;;;;2.90;2.30;;;24.90;86.50;;;;;;5194490;26;20477;-35
2024/04/27 11:19:09;;;;;;;3.97;2.83;;;25.00;86.20;;;;;;5257169;26;20583;-33
2024/04/27 11:21:39;;;;;;;4.13;1.77;;;24.90;88.20;;;;;;5272199;26;20525;-33
2024/04/27 11:24:10;;;;;;;3.47;1.83;;;24.70;85.10;;;;;;5125550;26;20487;-35
2024/04/27 11:26:39;;;;;;;3.30;2.20;;;25.20;82.00;;;;;;5104671;26;20607;-34
2024/04/27 11:29:07;;;;;;;6.40;1.97;;;25.30;84.50;;;;;;5176628;26;20880;-35
2024/04/27 11:31:36;;;;;;;3.50;2.17;;;25.60;88.10;;;;;;5345051;26;20484;-38
2024/04/27 11:34:07;;;;;;;2.33;2.13;;;25.00;87.20;;;;;;5348783;26;20468;-36
2024/04/27 11:36:43;;;;;;;2.43;1.73;;;25.10;91.50;;;;;;5352960;26;20582;-35
2024/04/27 11:39:11;;;;;;;3.20;2.00;;;25.10;81.80;;;;;;5345569;26;20614;-38
2024/04/27 11:41:44;;;;;;;3.10;2.30;;;26.00;80.90;;;;;;5341066;26;20604;-35
2024/04/27 11:44:15;;;;;;;3.40;2.30;;;25.00;81.20;;;;;;5336434;26;20477;-38
2024/04/27 11:46:45;;;;;;;3.90;1.93;;;25.20;81.40;;;;;;5336972;26;20527;-36
2024/04/27 11:49:16;;;;;;;2.40;1.70;;;26.30;84.70;;;;;;5359965;26;20469;-35
2024/04/27 11:51:44;;;;;;;5.33;2.17;;;25.60;87.80;;;;;;5347599;26;20663;-36
2024/04/27 11:54:15;;;;;;;2.87;2.13;;;25.70;87.80;;;;;;5345444;26;20460;-37
2024/04/27 11:56:43;;;;;;;2.47;2.10;;;25.70;90.00;;;;;;5350700;26;20533;-35
2024/04/27 11:59:12;;;;;;;5.63;1.90;;;24.80;91.00;;;;;;5339372;26;20482;-37
2024/04/27 12:01:40;;;;;;;3.57;2.03;;;25.50;87.60;;;;;;5347045;26;20608;-35
2024/04/27 12:04:10;;;;;;;2.37;2.00;;;26.70;92.90;;;;;;5349362;26;20472;-36
2024/04/27 12:06:42;;;;;;;2.30;1.80;;;25.20;80.40;;;;;;5342859;26;21464;-36
2024/04/27 12:09:10;;;;;;;4.27;2.07;;;25.70;80.50;;;;;;5330584;26;20477;-36
2024/04/27 12:11:38;;;;;;;3.57;2.03;;;25.70;80.70;;;;;;5348079;26;21339;-36
2024/04/27 12:14:09;;;;;;;2.20;2.00;;;25.80;89.30;;;;;;5355019;26;20619;-36
2024/04/27 12:16:37;;;;;;;2.80;2.37;;;25.10;90.90;;;;;;5351301;26;21104;-36
2024/04/27 12:19:06;;;;;;;1.97;1.77;;;26.00;90.20;;;;;;5345104;26;20476;-37
2024/04/27 12:21:34;;;;;;;2.50;1.93;;;25.50;90.40;;;;;;5349060;26;20484;-37
2024/04/27 12:24:08;;;;;;;2.27;1.90;;;26.10;89.10;;;;;;5349293;26;20477;-35
2024/04/27 12:26:43;;;;;;;3.97;2.33;;;25.70;89.10;;;;;;5338498;26;22027;-35
2024/04/27 12:29:11;;;;;;;2.30;1.67;;;25.80;90.20;;;;;;5318990;26;20473;-37
2024/04/27 12:31:41;;;;;;;1.87;1.50;;;26.10;92.70;;;;;;5335458;26;20565;-36
2024/04/27 12:34:12;;;;;;;2.53;1.70;;;25.40;92.60;;;;;;5328073;26;20465;-35
2024/04/27 12:36:40;;;;;;;2.27;2.07;;;25.60;91.70;;;;;;5345936;26;20497;-36
2024/04/27 12:39:11;;;;;;;2.83;1.97;;;25.70;93.60;;;;;;5354113;26;20483;-36
2024/04/27 12:41:42;;;;;;;3.87;2.00;;;26.40;89.50;;;;;;5341889;26;20482;-35
2024/04/27 12:44:10;;;;;;;4.47;2.10;;;25.50;90.50;;;;;;5341555;26;21249;-35
2024/04/27 12:46:39;;;;;;;2.87;1.70;;;26.10;94.00;;;;;;5352361;26;20583;-35
2024/04/27 12:49:07;;;;;;;1.60;1.50;;;25.60;90.20;;;;;;5351721;26;20526;-33
2024/04/27 12:51:38;;;;;;;7.33;2.10;;;27.40;90.20;;;;;;5357276;26;20471;-32
2024/04/27 12:54:13;;;;;;;4.27;2.43;;;26.00;89.00;;;;;;5356668;26;20906;-32
2024/04/27 12:56:45;;;;;;;9.50;2.30;;;26.90;88.70;;;;;;5339475;26;20544;-33
2024/04/27 12:59:13;;;;;;;3.40;1.50;;;26.40;87.20;;;;;;5346948;26;20566;-32
2024/04/27 13:01:44;;;;;;;5.00;2.07;;;25.90;86.90;;;;;;5351114;26;20573;-33
2024/04/27 13:04:13;;;;;;;3.17;1.60;;;26.50;87.30;;;;;;5351686;26;20587;-32